createdAt,value
2022-10-11T00:01:01.619Z,98492.83
2022-10-11T00:03:36.299Z,98492.89
2022-10-11T00:06:06.504Z,98491.68
2022-10-11T00:08:35.835Z,98486.94
2022-10-11T00:11:06.476Z,98486.55
2022-10-11T00:13:34.892Z,98481.50
2022-10-11T00:16:10.245Z,98482.04
2022-10-11T00:18:39.069Z,98483.57
2022-10-11T00:21:13.923Z,98488.98
2022-10-11T00:23:43.064Z,98489.08
2022-10-11T00:26:12.186Z,98484.69
2022-10-11T00:28:41.107Z,98482.98
2022-10-11T00:31:11.712Z,98482.31
2022-10-11T00:33:40.187Z,98478.29
2022-10-11T00:36:09.423Z,98478.42
2022-10-11T00:38:37.613Z,98476.48
2022-10-11T00:41:05.778Z,98476.65
2022-10-11T00:43:34.339Z,98475.41
2022-10-11T00:46:13.466Z,98474.48
2022-10-11T00:48:49.274Z,98477.15
2022-10-11T00:51:24.620Z,98475.84
2022-10-11T00:53:53.748Z,98471.64
2022-10-11T00:56:28.178Z,98475.45
2022-10-11T00:58:57.873Z,98468.80
2022-10-11T01:01:26.741Z,98464.52
2022-10-11T01:03:56.045Z,98467.89
2022-10-11T01:06:24.218Z,98464.68
2022-10-11T01:08:53.259Z,98464.89
2022-10-11T01:11:25.105Z,98463.53
2022-10-11T01:14:14.723Z,98462.25
2022-10-11T01:16:52.856Z,98460.83
2022-10-11T01:19:53.605Z,98457.84
2022-10-11T01:22:27.675Z,98453.73
2022-10-11T01:25:08.016Z,98452.67
2022-10-11T01:28:20.776Z,98453.30
2022-10-11T01:30:50.945Z,98453.48
2022-10-11T01:33:19.081Z,98458.14
2022-10-11T01:36:08.701Z,98453.30
2022-10-11T01:38:52.720Z,98455.95
2022-10-11T01:41:30.259Z,98454.77
2022-10-11T01:44:01.342Z,98454.64
2022-10-11T01:46:31.061Z,98455.82
2022-10-11T01:49:01.581Z,98453.62
2022-10-11T01:51:45.205Z,98450.14
2022-10-11T01:55:08.035Z,98449.80
2022-10-11T01:58:20.730Z,98451.45
2022-10-11T02:01:29.206Z,98448.08
2022-10-11T02:04:06.801Z,98451.86
2022-10-11T02:06:46.564Z,98451.87
2022-10-11T02:09:35.775Z,98451.76
2022-10-11T02:12:09.448Z,98449.88
2022-10-11T02:14:42.413Z,98449.04
2022-10-11T02:17:18.655Z,98446.69
2022-10-11T02:19:53.211Z,98442.62
2022-10-11T02:22:32.227Z,98444.33
2022-10-11T02:25:05.497Z,98443.15
2022-10-11T02:27:38.220Z,98442.22
2022-10-11T02:30:07.704Z,98439.39
2022-10-11T02:32:40.824Z,98438.44
2022-10-11T02:35:10.249Z,98436.45
2022-10-11T02:37:58.553Z,98439.95
2022-10-11T02:40:33.466Z,98434.52
2022-10-11T02:43:19.720Z,98431.70
2022-10-11T02:45:55.898Z,98429.02
2022-10-11T02:48:27.536Z,98428.50
2022-10-11T02:50:57.444Z,98429.95
2022-10-11T02:53:26.985Z,98428.58
2022-10-11T02:55:55.700Z,98426.94
2022-10-11T02:58:24.790Z,98432.80
2022-10-11T03:00:52.899Z,98429.13
2022-10-11T03:03:20.965Z,98426.61
2022-10-11T03:05:49.468Z,98427.67
2022-10-11T03:08:18.141Z,98426.52
2022-10-11T03:10:46.368Z,98424.67
2022-10-11T03:13:18.121Z,98425.80
2022-10-11T03:16:02.909Z,98432.19
2022-10-11T03:18:31.943Z,98436.54
2022-10-11T03:21:00.103Z,98435.98
2022-10-11T03:23:28.302Z,98435.30
2022-10-11T03:25:56.666Z,98432.86
2022-10-11T03:28:24.923Z,98434.39
2022-10-11T03:30:53.218Z,98434.14
2022-10-11T03:33:21.472Z,98434.89
2022-10-11T03:35:50.159Z,98431.36
2022-10-11T03:38:21.449Z,98431.60
2022-10-11T03:40:49.812Z,98429.38
2022-10-11T03:43:18.073Z,98424.06
2022-10-11T03:45:46.511Z,98425.91
2022-10-11T03:48:14.627Z,98425.68
2022-10-11T03:50:42.635Z,98428.20
2022-10-11T03:53:11.004Z,98429.21
2022-10-11T03:55:40.379Z,98429.52
2022-10-11T03:58:09.306Z,98431.90
2022-10-11T04:00:37.521Z,98430.71
2022-10-11T04:03:05.532Z,98430.38
2022-10-11T04:05:33.743Z,98430.73
2022-10-11T04:08:01.822Z,98435.43
2022-10-11T04:10:31.192Z,98434.84
2022-10-11T04:12:59.351Z,98435.16
2022-10-11T04:15:27.549Z,98433.91
2022-10-11T04:17:55.738Z,98433.10
2022-10-11T04:20:23.820Z,98430.80
2022-10-11T04:22:51.814Z,98432.08
2022-10-11T04:25:19.989Z,98433.98
2022-10-11T04:27:48.619Z,98435.73
2022-10-11T04:30:17.412Z,98437.58
2022-10-11T04:32:45.421Z,98435.36
2022-10-11T04:35:13.824Z,98433.31
2022-10-11T04:37:41.978Z,98436.14
2022-10-11T04:40:10.841Z,98435.60
2022-10-11T04:42:38.914Z,98433.24
2022-10-11T04:45:07.460Z,98429.66
2022-10-11T04:47:35.772Z,98428.67
2022-10-11T04:50:04.666Z,98433.02
2022-10-11T04:52:32.824Z,98436.90
2022-10-11T04:55:00.910Z,98439.39
2022-10-11T04:57:28.960Z,98442.14
2022-10-11T04:59:56.951Z,98440.94
2022-10-11T05:02:25.126Z,98441.65
2022-10-11T05:04:56.085Z,98441.39
2022-10-11T05:07:24.225Z,98443.34
2022-10-11T05:09:52.338Z,98449.91
2022-10-11T05:12:22.656Z,98458.54
2022-10-11T05:14:50.850Z,98459.81
2022-10-11T05:17:22.078Z,98461.62
2022-10-11T05:19:50.450Z,98459.20
2022-10-11T05:22:18.683Z,98460.20
2022-10-11T05:24:46.754Z,98461.73
2022-10-11T05:27:15.125Z,98461.26
2022-10-11T05:29:43.201Z,98459.72
2022-10-11T05:32:11.232Z,98454.48
2022-10-11T05:34:39.321Z,98451.64
2022-10-11T05:37:07.345Z,98453.17
2022-10-11T05:39:35.374Z,98461.34
2022-10-11T05:42:07.657Z,98465.78
2022-10-11T05:44:37.679Z,98470.65
2022-10-11T05:47:05.812Z,98474.00
2022-10-11T05:49:33.821Z,98472.02
2022-10-11T05:52:01.818Z,98481.92
2022-10-11T05:54:31.146Z,98489.55
2022-10-11T05:56:59.205Z,98488.73
2022-10-11T05:59:27.649Z,98484.10
2022-10-11T06:01:55.854Z,98487.30
2022-10-11T06:04:23.796Z,98494.19
2022-10-11T06:06:51.780Z,98490.95
2022-10-11T06:09:19.738Z,98485.90
2022-10-11T06:11:47.851Z,98482.14
2022-10-11T06:14:16.028Z,98482.04
2022-10-11T06:16:44.039Z,98487.17
2022-10-11T06:19:12.102Z,98490.54
2022-10-11T06:21:40.605Z,98494.88
2022-10-11T06:24:09.402Z,98496.48
2022-10-11T06:26:37.553Z,98495.98
2022-10-11T06:29:06.060Z,98498.64
2022-10-11T06:31:34.447Z,98495.12
2022-10-11T06:34:02.419Z,98492.90
2022-10-11T06:36:31.301Z,98494.37
2022-10-11T06:39:01.498Z,98493.20
2022-10-11T06:41:30.949Z,98494.92
2022-10-11T06:43:59.105Z,98496.73
2022-10-11T06:46:28.801Z,98499.83
2022-10-11T06:48:56.926Z,98501.52
2022-10-11T06:51:26.036Z,98503.65
2022-10-11T06:53:56.970Z,98504.38
2022-10-11T06:56:27.217Z,98507.66
2022-10-11T06:58:56.522Z,98514.30
2022-10-11T07:01:24.844Z,98516.59
2022-10-11T07:03:55.374Z,98516.95
2022-10-11T07:06:26.622Z,98522.52
2022-10-11T07:08:55.204Z,98529.55
2022-10-11T07:11:26.697Z,98531.67
2022-10-11T07:14:00.335Z,98528.38
2022-10-11T07:16:29.211Z,98527.45
2022-10-11T07:19:01.201Z,98524.77
2022-10-11T07:21:31.400Z,98524.63
2022-10-11T07:24:00.318Z,98519.56
2022-10-11T07:26:33.789Z,98519.04
2022-10-11T07:29:05.244Z,98517.09
2022-10-11T07:31:33.518Z,98521.83
2022-10-11T07:34:01.518Z,98519.90
2022-10-11T07:36:29.702Z,98523.23
2022-10-11T07:38:58.098Z,98520.14
2022-10-11T07:41:26.108Z,98517.68
2022-10-11T07:43:55.195Z,98523.03
2022-10-11T07:46:23.173Z,98523.69
2022-10-11T07:48:51.266Z,98524.75
2022-10-11T07:51:21.933Z,98521.65
2022-10-11T07:53:52.799Z,98523.13
2022-10-11T07:56:26.913Z,98522.19
2022-10-11T07:59:00.732Z,98523.13
2022-10-11T08:01:29.133Z,98526.88
2022-10-11T08:03:57.804Z,98529.84
2022-10-11T08:06:30.730Z,98530.39
2022-10-11T08:09:00.691Z,98531.02
2022-10-11T08:11:32.538Z,98526.20
2022-10-11T08:14:02.385Z,98526.92
2022-10-11T08:16:30.445Z,98528.98
2022-10-11T08:18:58.861Z,98526.64
2022-10-11T08:21:27.155Z,98530.14
2022-10-11T08:23:55.185Z,98527.74
2022-10-11T08:26:24.199Z,98526.55
2022-10-11T08:28:52.501Z,98523.22
2022-10-11T08:31:20.978Z,98522.75
2022-10-11T08:33:49.043Z,98522.02
2022-10-11T08:36:17.053Z,98522.64
2022-10-11T08:38:45.040Z,98523.29
2022-10-11T08:41:47.699Z,98524.69
2022-10-11T08:44:58.216Z,98525.16
2022-10-11T08:47:37.967Z,98523.33
2022-10-11T08:50:07.137Z,98525.55
2022-10-11T08:52:38.109Z,98523.26
2022-10-11T08:55:12.624Z,98522.61
2022-10-11T08:57:44.170Z,98522.68
2022-10-11T09:00:17.208Z,98523.77
2022-10-11T09:03:09.006Z,98522.77
2022-10-11T09:06:13.959Z,98516.29
2022-10-11T09:08:54.189Z,98516.23
2022-10-11T09:11:45.782Z,98516.62
2022-10-11T09:14:14.033Z,98515.91
2022-10-11T09:17:16.701Z,98515.89
2022-10-11T09:20:09.748Z,98514.25
2022-10-11T09:23:04.990Z,98517.09
2022-10-11T09:25:58.988Z,98515.52
2022-10-11T09:28:57.403Z,98515.50
2022-10-11T09:31:29.761Z,98520.36
2022-10-11T09:33:59.637Z,98519.16
2022-10-11T09:36:47.207Z,98519.74
2022-10-11T09:39:31.889Z,98522.34
2022-10-11T09:42:07.020Z,98518.79
2022-10-11T09:44:37.913Z,98514.49
2022-10-11T09:47:07.232Z,98513.08
2022-10-11T09:49:45.009Z,98508.92
2022-10-11T09:52:19.792Z,98512.02
2022-10-11T09:54:51.810Z,98511.70
2022-10-11T09:57:24.388Z,98509.23
2022-10-11T10:00:00.496Z,98507.77
2022-10-11T10:02:30.933Z,98509.59
2022-10-11T10:05:14.174Z,98502.02
2022-10-11T10:08:01.608Z,98498.38
2022-10-11T10:10:43.529Z,98493.43
2022-10-11T10:13:28.871Z,98495.89
2022-10-11T10:16:01.358Z,98496.63
2022-10-11T10:18:50.497Z,98494.29
2022-10-11T10:21:27.829Z,98495.56
2022-10-11T10:23:57.834Z,98494.61
2022-10-11T10:26:27.232Z,98493.46
2022-10-11T10:29:09.868Z,98490.20
2022-10-11T10:32:13.018Z,98489.24
2022-10-11T10:34:53.231Z,98483.91
2022-10-11T10:37:32.899Z,98483.02
2022-10-11T10:40:26.101Z,98480.72
2022-10-11T10:42:56.524Z,98482.95
2022-10-11T10:45:35.675Z,98479.53
2022-10-11T10:48:16.085Z,98475.65
2022-10-11T10:51:18.171Z,98468.75
2022-10-11T10:53:57.462Z,98460.20
2022-10-11T10:56:36.131Z,98459.13
2022-10-11T10:59:19.934Z,98455.20
2022-10-11T11:02:11.091Z,98450.91
2022-10-11T11:05:36.487Z,98448.31
2022-10-11T11:08:23.263Z,98444.33
2022-10-11T11:11:00.158Z,98444.45
2022-10-11T11:13:43.553Z,98437.79
2022-10-11T11:16:22.277Z,98430.95
2022-10-11T11:18:58.413Z,98431.67
2022-10-11T11:21:55.643Z,98430.02
2022-10-11T11:24:56.681Z,98428.98
2022-10-11T11:27:36.691Z,98429.45
2022-10-11T11:30:21.915Z,98424.39
2022-10-11T11:33:37.240Z,98420.45
2022-10-11T11:36:15.029Z,98418.33
2022-10-11T11:38:54.002Z,98417.88
2022-10-11T11:41:45.366Z,98415.33
2022-10-11T11:44:38.113Z,98412.38
2022-10-11T11:47:18.086Z,98409.80
2022-10-11T11:50:09.774Z,98406.71
2022-10-11T11:52:44.081Z,98396.73
2022-10-11T11:55:42.513Z,98392.84
2022-10-11T11:58:31.802Z,98393.35
2022-10-11T12:01:30.251Z,98389.55
2022-10-11T12:04:25.730Z,98387.23
2022-10-11T12:07:16.260Z,98382.85
2022-10-11T12:09:51.771Z,98380.64
2022-10-11T12:12:34.154Z,98378.95
2022-10-11T12:15:04.472Z,98376.76
2022-10-11T12:17:33.939Z,98379.17
2022-10-11T12:20:25.452Z,98373.58
2022-10-11T12:23:24.685Z,98374.62
2022-10-11T12:26:31.063Z,98376.42
2022-10-11T12:29:18.369Z,98376.33
2022-10-11T12:32:09.234Z,98370.45
2022-10-11T12:37:20.195Z,98373.14
2022-10-11T17:48:36.502Z,98443.23
2022-10-11T17:51:14.071Z,98439.68
2022-10-11T17:53:42.640Z,98438.91
2022-10-11T17:56:13.860Z,98437.60
2022-10-11T17:58:43.129Z,98434.52
2022-10-11T18:01:14.462Z,98433.75
2022-10-11T18:03:43.719Z,98434.75
2022-10-11T18:06:13.761Z,98436.14
2022-10-11T18:08:42.084Z,98434.21
2022-10-11T18:11:13.073Z,98432.83
2022-10-11T18:13:46.179Z,98431.97
2022-10-11T18:16:16.471Z,98432.37
2022-10-11T18:18:44.771Z,98437.84
2022-10-11T18:21:13.514Z,98438.83
2022-10-11T18:23:42.345Z,98437.90
2022-10-11T18:26:16.672Z,98439.90
2022-10-11T18:28:45.970Z,98436.75
2022-10-11T18:31:17.957Z,98433.21
2022-10-11T18:33:47.366Z,98433.21
2022-10-11T18:36:17.194Z,98434.60
2022-10-11T18:38:46.445Z,98434.05
2022-10-11T18:41:17.471Z,98432.66
2022-10-11T18:43:54.663Z,98435.05
2022-10-11T18:46:26.600Z,98434.67
2022-10-11T18:48:56.976Z,98433.98
2022-10-11T18:51:27.971Z,98435.98
2022-10-11T18:53:58.484Z,98439.91
2022-10-11T18:56:28.356Z,98440.75
2022-10-11T18:58:57.702Z,98438.59
2022-10-11T19:01:34.013Z,98438.52
2022-10-11T19:04:03.120Z,98435.74
2022-10-11T19:06:35.402Z,98437.60
2022-10-11T19:09:21.617Z,98434.91
2022-10-11T19:11:51.993Z,98435.52
2022-10-11T19:14:25.654Z,98438.92
2022-10-11T19:16:54.949Z,98439.45
2022-10-11T19:19:26.259Z,98440.77
2022-10-11T19:21:54.385Z,98442.22
2022-10-11T19:24:25.962Z,98443.15
2022-10-11T19:26:58.424Z,98444.99
2022-10-11T19:29:29.805Z,98446.92
2022-10-11T19:32:00.661Z,98446.23
2022-10-11T19:34:30.107Z,98442.99
2022-10-11T19:37:00.879Z,98445.30
2022-10-11T19:39:29.872Z,98451.93
2022-10-11T19:41:57.976Z,98451.84
2022-10-11T19:44:26.080Z,98454.02
2022-10-11T19:46:54.188Z,98459.88
2022-10-11T19:49:26.052Z,98461.80
2022-10-11T19:51:55.696Z,98460.11
2022-10-11T19:54:24.281Z,98464.19
2022-10-11T19:56:52.713Z,98465.26
2022-10-11T19:59:20.833Z,98467.64
2022-10-11T20:01:52.693Z,98468.57
2022-10-11T20:04:50.611Z,98469.19
2022-10-11T20:07:10.785Z,98469.41
2022-10-11T20:09:39.041Z,98464.48
2022-10-11T20:12:07.477Z,98461.86
2022-10-11T20:14:36.372Z,98461.48
2022-10-11T20:17:04.411Z,98462.02
2022-10-11T20:19:32.780Z,98467.02
2022-10-11T20:22:01.779Z,98468.84
2022-10-11T20:24:33.693Z,98470.84
2022-10-11T20:27:03.684Z,98473.08
2022-10-11T20:29:32.514Z,98472.16
2022-10-11T20:32:00.569Z,98470.53
2022-10-11T20:34:28.887Z,98471.23
2022-10-11T20:36:57.129Z,98470.61
2022-10-11T20:39:25.519Z,98467.14
2022-10-11T20:41:53.698Z,98468.20
2022-10-11T20:44:21.823Z,98468.05
2022-10-11T20:46:50.232Z,98464.45
2022-10-11T20:49:19.979Z,98467.52
2022-10-11T20:51:49.038Z,98469.98
2022-10-11T20:54:17.371Z,98469.45
2022-10-11T20:56:45.654Z,98470.36
2022-10-11T20:59:13.951Z,98468.44
2022-10-11T21:01:42.831Z,98468.44
2022-10-11T21:04:20.813Z,98462.81
2022-10-11T21:06:49.242Z,98467.50
2022-10-11T21:09:17.805Z,98467.89
2022-10-11T21:11:46.467Z,98468.05
2022-10-11T21:14:14.976Z,98469.65
2022-10-11T21:16:43.241Z,98464.34
2022-10-11T21:19:15.167Z,98462.17
2022-10-11T21:21:46.438Z,98466.64
2022-10-11T21:24:16.662Z,98464.71
2022-10-11T21:26:44.677Z,98465.55
2022-10-11T21:29:13.364Z,98467.09
2022-10-11T21:31:41.416Z,98465.63
2022-10-11T21:34:09.896Z,98465.84
2022-10-11T21:36:38.619Z,98464.39
2022-10-11T21:39:06.817Z,98464.99
2022-10-11T21:41:35.097Z,98464.37
2022-10-11T21:44:03.222Z,98464.29
2022-10-11T21:47:01.328Z,98462.67
2022-10-11T21:49:20.307Z,98465.35
2022-10-11T21:51:48.336Z,98468.27
2022-10-11T21:54:17.341Z,98467.20
2022-10-11T21:56:45.366Z,98465.73
2022-10-11T21:59:14.040Z,98466.56
2022-10-11T22:01:43.826Z,98462.16
2022-10-11T22:04:12.112Z,98470.09
2022-10-11T22:06:40.518Z,98468.16
2022-10-11T22:09:09.407Z,98465.85
2022-10-11T22:11:37.827Z,98466.94
2022-10-11T22:14:06.010Z,98469.48
2022-10-11T22:16:36.203Z,98469.55
2022-10-11T22:19:04.616Z,98467.23
2022-10-11T22:21:32.664Z,98467.68
2022-10-11T22:24:00.929Z,98471.82
2022-10-11T22:26:31.228Z,98472.28
2022-10-11T22:29:00.419Z,98473.60
2022-10-11T22:31:29.988Z,98470.52
2022-10-11T22:34:00.439Z,98470.36
2022-10-11T22:36:33.954Z,98468.98
2022-10-11T22:39:07.802Z,98468.44
2022-10-11T22:41:36.096Z,98473.73
2022-10-11T22:44:05.141Z,98472.27
2022-10-11T22:46:35.523Z,98471.05
2022-10-11T22:49:03.729Z,98471.82
2022-10-11T22:51:35.937Z,98475.35
2022-10-11T22:54:03.946Z,98475.36
2022-10-11T22:56:32.137Z,98479.49
2022-10-11T22:59:00.237Z,98476.64
2022-10-11T23:01:28.352Z,98475.64
2022-10-11T23:03:56.635Z,98474.62
2022-10-11T23:06:24.640Z,98478.32
2022-10-11T23:08:52.585Z,98476.94
2022-10-11T23:11:20.555Z,98475.54
2022-10-11T23:13:48.664Z,98476.09
2022-10-11T23:16:16.859Z,98477.85
2022-10-11T23:18:44.906Z,98476.77
2022-10-11T23:21:13.365Z,98475.14
2022-10-11T23:23:41.428Z,98477.83
2022-10-11T23:26:13.858Z,98476.19
2022-10-11T23:28:42.388Z,98476.96
2022-10-11T23:31:14.123Z,98480.16
2022-10-11T23:33:43.398Z,98481.23
2022-10-11T23:36:20.355Z,98482.77
2022-10-11T23:38:59.227Z,98484.45
2022-10-11T23:41:29.368Z,98488.20
2022-10-11T23:43:58.666Z,98485.59
2022-10-11T23:46:26.669Z,98481.52
2022-10-11T23:48:54.734Z,98483.20
2022-10-11T23:51:22.835Z,98483.58
2022-10-11T23:53:50.738Z,98483.73
2022-10-11T23:56:18.691Z,98481.57
2022-10-11T23:58:46.670Z,98481.58
